sensor_id;sensor_type;location;lat;lon;timestamp;P1;durP1;ratioP1;P2;durP2;ratioP2
53646;SDS011;39550;52.230;5.194;2023-04-16T00:00:48;7.53;;;3.15;;
53646;SDS011;39550;52.230;5.194;2023-04-16T00:03:13;6.13;;;2.95;;
53646;SDS011;39550;52.230;5.194;2023-04-16T00:05:39;6.05;;;3.00;;
53646;SDS011;39550;52.230;5.194;2023-04-16T00:08:04;6.15;;;3.00;;
53646;SDS011;39550;52.230;5.194;2023-04-16T00:10:30;7.47;;;2.92;;
53646;SDS011;39550;52.230;5.194;2023-04-16T00:12:55;7.85;;;2.95;;
53646;SDS011;39550;52.230;5.194;2023-04-16T00:15:21;5.88;;;2.85;;
53646;SDS011;39550;52.230;5.194;2023-04-16T00:17:46;7.18;;;2.78;;
53646;SDS011;39550;52.230;5.194;2023-04-16T00:20:12;5.13;;;2.60;;
53646;SDS011;39550;52.230;5.194;2023-04-16T00:22:38;7.55;;;2.78;;
53646;SDS011;39550;52.230;5.194;2023-04-16T00:25:03;7.78;;;2.83;;
53646;SDS011;39550;52.230;5.194;2023-04-16T00:27:29;6.03;;;2.47;;
53646;SDS011;39550;52.230;5.194;2023-04-16T00:29:54;6.40;;;2.70;;
53646;SDS011;39550;52.230;5.194;2023-04-16T00:32:20;4.82;;;2.40;;
53646;SDS011;39550;52.230;5.194;2023-04-16T00:34:45;7.43;;;2.63;;
53646;SDS011;39550;52.230;5.194;2023-04-16T00:37:10;6.05;;;2.35;;
53646;SDS011;39550;52.230;5.194;2023-04-16T00:39:35;8.57;;;2.90;;
53646;SDS011;39550;52.230;5.194;2023-04-16T00:42:01;6.80;;;2.45;;
53646;SDS011;39550;52.230;5.194;2023-04-16T00:44:26;7.63;;;2.80;;
53646;SDS011;39550;52.230;5.194;2023-04-16T00:46:53;7.40;;;2.92;;
53646;SDS011;39550;52.230;5.194;2023-04-16T00:49:20;4.18;;;2.05;;
53646;SDS011;39550;52.230;5.194;2023-04-16T00:51:45;6.47;;;2.95;;
53646;SDS011;39550;52.230;5.194;2023-04-16T00:54:10;8.70;;;3.22;;
53646;SDS011;39550;52.230;5.194;2023-04-16T00:56:36;5.90;;;2.70;;
53646;SDS011;39550;52.230;5.194;2023-04-16T00:59:01;6.82;;;2.40;;
53646;SDS011;39550;52.230;5.194;2023-04-16T01:01:27;6.05;;;2.35;;
53646;SDS011;39550;52.230;5.194;2023-04-16T01:03:52;4.78;;;2.55;;
53646;SDS011;39550;52.230;5.194;2023-04-16T01:06:18;7.18;;;2.80;;
53646;SDS011;39550;52.230;5.194;2023-04-16T01:08:45;7.85;;;2.50;;
53646;SDS011;39550;52.230;5.194;2023-04-16T01:11:10;7.45;;;2.63;;
53646;SDS011;39550;52.230;5.194;2023-04-16T01:13:36;4.95;;;2.55;;
53646;SDS011;39550;52.230;5.194;2023-04-16T01:16:03;5.35;;;2.50;;
53646;SDS011;39550;52.230;5.194;2023-04-16T01:18:30;6.57;;;2.95;;
53646;SDS011;39550;52.230;5.194;2023-04-16T01:20:55;6.25;;;3.20;;
53646;SDS011;39550;52.230;5.194;2023-04-16T01:23:21;4.53;;;2.30;;
53646;SDS011;39550;52.230;5.194;2023-04-16T01:25:46;5.68;;;2.45;;
53646;SDS011;39550;52.230;5.194;2023-04-16T01:28:11;4.60;;;2.60;;
53646;SDS011;39550;52.230;5.194;2023-04-16T01:30:37;6.53;;;3.00;;
53646;SDS011;39550;52.230;5.194;2023-04-16T01:33:02;4.72;;;2.47;;
53646;SDS011;39550;52.230;5.194;2023-04-16T01:35:28;5.82;;;2.80;;
53646;SDS011;39550;52.230;5.194;2023-04-16T01:37:53;5.15;;;2.45;;
53646;SDS011;39550;52.230;5.194;2023-04-16T01:40:19;5.65;;;2.53;;
53646;SDS011;39550;52.230;5.194;2023-04-16T01:42:44;4.88;;;2.47;;
53646;SDS011;39550;52.230;5.194;2023-04-16T01:45:10;5.35;;;2.50;;
53646;SDS011;39550;52.230;5.194;2023-04-16T01:47:35;4.57;;;2.63;;
53646;SDS011;39550;52.230;5.194;2023-04-16T01:50:01;5.75;;;2.58;;
53646;SDS011;39550;52.230;5.194;2023-04-16T01:52:29;9.52;;;2.72;;
53646;SDS011;39550;52.230;5.194;2023-04-16T01:54:54;5.40;;;2.50;;
53646;SDS011;39550;52.230;5.194;2023-04-16T01:57:20;5.15;;;2.53;;
53646;SDS011;39550;52.230;5.194;2023-04-16T01:59:45;4.95;;;2.60;;
53646;SDS011;39550;52.230;5.194;2023-04-16T02:02:11;4.65;;;2.40;;
53646;SDS011;39550;52.230;5.194;2023-04-16T02:04:39;5.10;;;2.70;;
53646;SDS011;39550;52.230;5.194;2023-04-16T02:07:06;7.18;;;2.75;;
53646;SDS011;39550;52.230;5.194;2023-04-16T02:09:35;4.72;;;2.60;;
53646;SDS011;39550;52.230;5.194;2023-04-16T02:12:01;7.15;;;2.67;;
53646;SDS011;39550;52.230;5.194;2023-04-16T02:14:27;5.40;;;2.97;;
53646;SDS011;39550;52.230;5.194;2023-04-16T02:16:53;4.88;;;2.58;;
53646;SDS011;39550;52.230;5.194;2023-04-16T02:19:18;4.45;;;2.40;;
53646;SDS011;39550;52.230;5.194;2023-04-16T02:21:43;5.05;;;2.38;;
53646;SDS011;39550;52.230;5.194;2023-04-16T02:24:09;9.00;;;2.90;;
53646;SDS011;39550;52.230;5.194;2023-04-16T02:26:34;7.78;;;2.72;;
53646;SDS011;39550;52.230;5.194;2023-04-16T02:29:00;4.45;;;2.75;;
53646;SDS011;39550;52.230;5.194;2023-04-16T02:31:25;5.10;;;3.10;;
53646;SDS011;39550;52.230;5.194;2023-04-16T02:33:52;7.03;;;2.60;;
53646;SDS011;39550;52.230;5.194;2023-04-16T02:36:17;5.63;;;2.75;;
53646;SDS011;39550;52.230;5.194;2023-04-16T02:38:43;4.70;;;2.50;;
53646;SDS011;39550;52.230;5.194;2023-04-16T02:41:08;5.03;;;2.78;;
53646;SDS011;39550;52.230;5.194;2023-04-16T02:43:33;4.95;;;2.88;;
53646;SDS011;39550;52.230;5.194;2023-04-16T02:45:58;5.78;;;3.33;;
53646;SDS011;39550;52.230;5.194;2023-04-16T02:48:24;5.93;;;2.85;;
53646;SDS011;39550;52.230;5.194;2023-04-16T02:50:49;5.93;;;3.00;;
53646;SDS011;39550;52.230;5.194;2023-04-16T02:53:14;6.53;;;3.10;;
53646;SDS011;39550;52.230;5.194;2023-04-16T02:55:40;4.93;;;2.67;;
53646;SDS011;39550;52.230;5.194;2023-04-16T02:58:05;5.57;;;2.92;;
53646;SDS011;39550;52.230;5.194;2023-04-16T03:00:30;5.32;;;2.72;;
53646;SDS011;39550;52.230;5.194;2023-04-16T03:02:56;7.32;;;3.20;;
53646;SDS011;39550;52.230;5.194;2023-04-16T03:05:21;5.15;;;2.55;;
53646;SDS011;39550;52.230;5.194;2023-04-16T03:07:46;6.60;;;3.53;;
53646;SDS011;39550;52.230;5.194;2023-04-16T03:10:12;6.85;;;3.47;;
53646;SDS011;39550;52.230;5.194;2023-04-16T03:12:37;6.40;;;3.20;;
53646;SDS011;39550;52.230;5.194;2023-04-16T03:15:03;5.28;;;3.10;;
53646;SDS011;39550;52.230;5.194;2023-04-16T03:17:29;6.38;;;3.22;;
53646;SDS011;39550;52.230;5.194;2023-04-16T03:19:54;6.20;;;3.88;;
53646;SDS011;39550;52.230;5.194;2023-04-16T03:22:20;5.28;;;3.03;;
53646;SDS011;39550;52.230;5.194;2023-04-16T03:24:45;5.10;;;2.80;;
53646;SDS011;39550;52.230;5.194;2023-04-16T03:27:10;5.43;;;2.75;;
53646;SDS011;39550;52.230;5.194;2023-04-16T03:29:36;6.45;;;3.10;;
53646;SDS011;39550;52.230;5.194;2023-04-16T03:32:02;6.63;;;3.40;;
53646;SDS011;39550;52.230;5.194;2023-04-16T03:34:28;6.22;;;3.03;;
53646;SDS011;39550;52.230;5.194;2023-04-16T03:36:53;6.57;;;3.13;;
53646;SDS011;39550;52.230;5.194;2023-04-16T03:39:18;7.40;;;3.55;;
53646;SDS011;39550;52.230;5.194;2023-04-16T03:41:43;7.13;;;3.40;;
53646;SDS011;39550;52.230;5.194;2023-04-16T03:44:09;6.95;;;3.60;;
53646;SDS011;39550;52.230;5.194;2023-04-16T03:46:34;6.65;;;3.17;;
53646;SDS011;39550;52.230;5.194;2023-04-16T03:49:01;7.57;;;3.50;;
53646;SDS011;39550;52.230;5.194;2023-04-16T03:51:26;7.00;;;3.45;;
53646;SDS011;39550;52.230;5.194;2023-04-16T03:53:51;7.32;;;3.38;;
53646;SDS011;39550;52.230;5.194;2023-04-16T03:56:17;7.53;;;3.40;;
53646;SDS011;39550;52.230;5.194;2023-04-16T03:58:42;5.78;;;3.30;;
53646;SDS011;39550;52.230;5.194;2023-04-16T04:01:07;6.47;;;3.30;;
53646;SDS011;39550;52.230;5.194;2023-04-16T04:03:32;6.60;;;3.10;;
53646;SDS011;39550;52.230;5.194;2023-04-16T04:05:58;6.50;;;3.72;;
53646;SDS011;39550;52.230;5.194;2023-04-16T04:08:23;6.10;;;3.45;;
53646;SDS011;39550;52.230;5.194;2023-04-16T04:10:48;8.45;;;3.30;;
53646;SDS011;39550;52.230;5.194;2023-04-16T04:13:15;8.23;;;3.70;;
53646;SDS011;39550;52.230;5.194;2023-04-16T04:15:40;7.28;;;3.90;;
53646;SDS011;39550;52.230;5.194;2023-04-16T04:18:05;7.28;;;3.67;;
53646;SDS011;39550;52.230;5.194;2023-04-16T04:20:31;7.88;;;3.30;;
53646;SDS011;39550;52.230;5.194;2023-04-16T04:22:56;6.20;;;3.45;;
53646;SDS011;39550;52.230;5.194;2023-04-16T04:25:21;7.03;;;3.75;;
53646;SDS011;39550;52.230;5.194;2023-04-16T04:27:47;7.47;;;4.15;;
53646;SDS011;39550;52.230;5.194;2023-04-16T04:30:13;6.80;;;3.70;;
53646;SDS011;39550;52.230;5.194;2023-04-16T04:32:38;7.72;;;3.80;;
53646;SDS011;39550;52.230;5.194;2023-04-16T04:35:03;7.60;;;4.13;;
53646;SDS011;39550;52.230;5.194;2023-04-16T04:37:29;6.20;;;3.75;;
53646;SDS011;39550;52.230;5.194;2023-04-16T04:39:55;9.73;;;4.32;;
53646;SDS011;39550;52.230;5.194;2023-04-16T04:42:20;9.82;;;3.97;;
53646;SDS011;39550;52.230;5.194;2023-04-16T04:44:46;9.18;;;3.75;;
53646;SDS011;39550;52.230;5.194;2023-04-16T04:47:12;8.15;;;4.45;;
53646;SDS011;39550;52.230;5.194;2023-04-16T04:49:38;7.88;;;4.05;;
53646;SDS011;39550;52.230;5.194;2023-04-16T04:52:03;10.52;;;4.70;;
53646;SDS011;39550;52.230;5.194;2023-04-16T04:54:30;8.50;;;4.75;;
53646;SDS011;39550;52.230;5.194;2023-04-16T04:56:56;8.77;;;4.65;;
53646;SDS011;39550;52.230;5.194;2023-04-16T04:59:22;9.60;;;5.15;;
53646;SDS011;39550;52.230;5.194;2023-04-16T05:01:48;10.20;;;5.07;;
53646;SDS011;39550;52.230;5.194;2023-04-16T05:04:13;7.68;;;4.57;;
53646;SDS011;39550;52.230;5.194;2023-04-16T05:06:39;9.55;;;5.43;;
53646;SDS011;39550;52.230;5.194;2023-04-16T05:09:04;8.38;;;5.10;;
53646;SDS011;39550;52.230;5.194;2023-04-16T05:11:32;11.02;;;5.28;;
53646;SDS011;39550;52.230;5.194;2023-04-16T05:13:57;8.38;;;5.20;;
53646;SDS011;39550;52.230;5.194;2023-04-16T05:16:23;9.95;;;4.80;;
53646;SDS011;39550;52.230;5.194;2023-04-16T05:18:48;9.70;;;4.93;;
53646;SDS011;39550;52.230;5.194;2023-04-16T05:21:14;10.57;;;5.20;;
53646;SDS011;39550;52.230;5.194;2023-04-16T05:23:39;9.48;;;5.43;;
53646;SDS011;39550;52.230;5.194;2023-04-16T05:26:04;10.52;;;5.32;;
53646;SDS011;39550;52.230;5.194;2023-04-16T05:28:30;11.88;;;5.65;;
53646;SDS011;39550;52.230;5.194;2023-04-16T05:30:55;12.48;;;6.57;;
53646;SDS011;39550;52.230;5.194;2023-04-16T05:33:20;11.45;;;5.82;;
53646;SDS011;39550;52.230;5.194;2023-04-16T05:35:46;9.52;;;5.88;;
53646;SDS011;39550;52.230;5.194;2023-04-16T05:38:11;13.57;;;6.03;;
53646;SDS011;39550;52.230;5.194;2023-04-16T05:40:36;11.00;;;5.88;;
53646;SDS011;39550;52.230;5.194;2023-04-16T05:43:02;15.02;;;6.47;;
53646;SDS011;39550;52.230;5.194;2023-04-16T05:45:27;10.57;;;6.28;;
53646;SDS011;39550;52.230;5.194;2023-04-16T05:47:52;10.60;;;6.63;;
53646;SDS011;39550;52.230;5.194;2023-04-16T05:50:18;10.55;;;5.93;;
53646;SDS011;39550;52.230;5.194;2023-04-16T05:52:43;10.80;;;6.03;;
53646;SDS011;39550;52.230;5.194;2023-04-16T05:55:08;9.75;;;6.35;;
53646;SDS011;39550;52.230;5.194;2023-04-16T05:57:34;9.43;;;6.45;;
53646;SDS011;39550;52.230;5.194;2023-04-16T05:59:59;13.27;;;7.53;;
53646;SDS011;39550;52.230;5.194;2023-04-16T06:02:25;13.68;;;7.00;;
53646;SDS011;39550;52.230;5.194;2023-04-16T06:04:50;13.02;;;6.63;;
53646;SDS011;39550;52.230;5.194;2023-04-16T06:07:15;15.45;;;7.28;;
53646;SDS011;39550;52.230;5.194;2023-04-16T06:09:41;12.95;;;7.47;;
53646;SDS011;39550;52.230;5.194;2023-04-16T06:12:06;12.00;;;6.90;;
53646;SDS011;39550;52.230;5.194;2023-04-16T06:14:31;12.05;;;6.40;;
53646;SDS011;39550;52.230;5.194;2023-04-16T06:16:57;11.90;;;6.97;;
53646;SDS011;39550;52.230;5.194;2023-04-16T06:19:22;15.63;;;6.88;;
53646;SDS011;39550;52.230;5.194;2023-04-16T06:21:47;12.70;;;7.05;;
53646;SDS011;39550;52.230;5.194;2023-04-16T06:24:13;13.82;;;7.35;;
53646;SDS011;39550;52.230;5.194;2023-04-16T06:26:38;14.27;;;6.78;;
53646;SDS011;39550;52.230;5.194;2023-04-16T06:29:03;11.43;;;6.57;;
53646;SDS011;39550;52.230;5.194;2023-04-16T06:31:29;11.82;;;6.53;;
53646;SDS011;39550;52.230;5.194;2023-04-16T06:33:55;12.98;;;7.05;;
53646;SDS011;39550;52.230;5.194;2023-04-16T06:36:20;12.57;;;6.97;;
53646;SDS011;39550;52.230;5.194;2023-04-16T06:38:45;12.30;;;6.30;;
53646;SDS011;39550;52.230;5.194;2023-04-16T06:41:11;12.07;;;6.93;;
53646;SDS011;39550;52.230;5.194;2023-04-16T06:43:38;13.00;;;7.75;;
53646;SDS011;39550;52.230;5.194;2023-04-16T06:46:03;12.43;;;7.18;;
53646;SDS011;39550;52.230;5.194;2023-04-16T06:48:28;14.50;;;7.05;;
53646;SDS011;39550;52.230;5.194;2023-04-16T06:50:54;11.35;;;6.80;;
53646;SDS011;39550;52.230;5.194;2023-04-16T06:53:19;11.27;;;7.07;;
53646;SDS011;39550;52.230;5.194;2023-04-16T06:55:45;12.60;;;6.72;;
53646;SDS011;39550;52.230;5.194;2023-04-16T06:58:10;13.75;;;7.38;;
53646;SDS011;39550;52.230;5.194;2023-04-16T07:00:35;13.15;;;6.40;;
53646;SDS011;39550;52.230;5.194;2023-04-16T07:03:01;13.48;;;7.07;;
53646;SDS011;39550;52.230;5.194;2023-04-16T07:05:27;11.95;;;7.20;;
53646;SDS011;39550;52.230;5.194;2023-04-16T07:07:52;12.95;;;7.38;;
53646;SDS011;39550;52.230;5.194;2023-04-16T07:10:17;12.57;;;7.22;;
53646;SDS011;39550;52.230;5.194;2023-04-16T07:12:42;12.20;;;7.35;;
53646;SDS011;39550;52.230;5.194;2023-04-16T07:15:08;12.73;;;7.78;;
53646;SDS011;39550;52.230;5.194;2023-04-16T07:17:34;10.52;;;7.00;;
53646;SDS011;39550;52.230;5.194;2023-04-16T07:19:59;12.52;;;6.93;;
53646;SDS011;39550;52.230;5.194;2023-04-16T07:22:25;11.73;;;7.07;;
53646;SDS011;39550;52.230;5.194;2023-04-16T07:24:50;11.77;;;7.00;;
53646;SDS011;39550;52.230;5.194;2023-04-16T07:27:15;13.48;;;7.00;;
53646;SDS011;39550;52.230;5.194;2023-04-16T07:29:41;12.75;;;6.78;;
53646;SDS011;39550;52.230;5.194;2023-04-16T07:32:06;10.48;;;6.43;;
53646;SDS011;39550;52.230;5.194;2023-04-16T07:34:32;10.10;;;5.90;;
53646;SDS011;39550;52.230;5.194;2023-04-16T07:36:57;11.25;;;7.32;;
53646;SDS011;39550;52.230;5.194;2023-04-16T07:39:22;10.82;;;7.15;;
53646;SDS011;39550;52.230;5.194;2023-04-16T07:41:48;11.40;;;7.28;;
53646;SDS011;39550;52.230;5.194;2023-04-16T07:44:13;12.25;;;7.00;;
53646;SDS011;39550;52.230;5.194;2023-04-16T07:46:38;9.00;;;6.43;;
53646;SDS011;39550;52.230;5.194;2023-04-16T07:49:04;9.95;;;6.70;;
53646;SDS011;39550;52.230;5.194;2023-04-16T07:51:29;9.18;;;6.30;;
53646;SDS011;39550;52.230;5.194;2023-04-16T07:53:55;11.32;;;6.13;;
53646;SDS011;39550;52.230;5.194;2023-04-16T07:56:20;10.23;;;6.30;;
53646;SDS011;39550;52.230;5.194;2023-04-16T07:58:45;11.63;;;6.95;;
53646;SDS011;39550;52.230;5.194;2023-04-16T08:01:11;12.20;;;6.80;;
53646;SDS011;39550;52.230;5.194;2023-04-16T08:03:36;11.48;;;6.78;;
53646;SDS011;39550;52.230;5.194;2023-04-16T08:06:01;9.15;;;5.72;;
53646;SDS011;39550;52.230;5.194;2023-04-16T08:08:27;12.23;;;6.68;;
53646;SDS011;39550;52.230;5.194;2023-04-16T08:10:53;13.23;;;6.75;;
53646;SDS011;39550;52.230;5.194;2023-04-16T08:13:21;12.65;;;6.28;;
53646;SDS011;39550;52.230;5.194;2023-04-16T08:15:47;10.52;;;6.78;;
53646;SDS011;39550;52.230;5.194;2023-04-16T08:18:13;10.20;;;6.20;;
53646;SDS011;39550;52.230;5.194;2023-04-16T08:20:39;11.95;;;6.38;;
53646;SDS011;39550;52.230;5.194;2023-04-16T08:23:05;11.05;;;7.32;;
53646;SDS011;39550;52.230;5.194;2023-04-16T08:25:31;10.30;;;6.45;;
53646;SDS011;39550;52.230;5.194;2023-04-16T08:27:56;8.75;;;5.80;;
53646;SDS011;39550;52.230;5.194;2023-04-16T08:30:21;9.23;;;6.65;;
53646;SDS011;39550;52.230;5.194;2023-04-16T08:32:47;9.88;;;6.18;;
53646;SDS011;39550;52.230;5.194;2023-04-16T08:35:12;9.57;;;6.50;;
53646;SDS011;39550;52.230;5.194;2023-04-16T08:37:38;9.95;;;6.60;;
53646;SDS011;39550;52.230;5.194;2023-04-16T08:40:03;9.10;;;5.88;;
53646;SDS011;39550;52.230;5.194;2023-04-16T08:42:30;8.60;;;5.85;;
53646;SDS011;39550;52.230;5.194;2023-04-16T08:45:08;10.43;;;6.07;;
53646;SDS011;39550;52.230;5.194;2023-04-16T08:47:43;11.20;;;6.15;;
53646;SDS011;39550;52.230;5.194;2023-04-16T08:50:10;8.60;;;5.53;;
53646;SDS011;39550;52.230;5.194;2023-04-16T08:52:41;9.60;;;5.75;;
53646;SDS011;39550;52.230;5.194;2023-04-16T09:05:24;9.13;;;5.55;;
53646;SDS011;39550;52.230;5.194;2023-04-16T09:07:51;10.05;;;5.53;;
53646;SDS011;39550;52.230;5.194;2023-04-16T09:10:18;8.43;;;5.28;;
53646;SDS011;39550;52.230;5.194;2023-04-16T09:12:44;8.95;;;5.20;;
53646;SDS011;39550;52.230;5.194;2023-04-16T09:15:10;8.52;;;5.47;;
53646;SDS011;39550;52.230;5.194;2023-04-16T09:17:37;9.52;;;5.18;;
53646;SDS011;39550;52.230;5.194;2023-04-16T09:20:06;8.57;;;5.00;;
53646;SDS011;39550;52.230;5.194;2023-04-16T09:22:36;8.32;;;5.25;;
53646;SDS011;39550;52.230;5.194;2023-04-16T09:25:02;8.55;;;5.00;;
53646;SDS011;39550;52.230;5.194;2023-04-16T09:27:29;9.02;;;5.18;;
53646;SDS011;39550;52.230;5.194;2023-04-16T09:29:54;10.70;;;5.60;;
53646;SDS011;39550;52.230;5.194;2023-04-16T09:32:23;9.05;;;5.57;;
53646;SDS011;39550;52.230;5.194;2023-04-16T09:34:57;9.98;;;5.70;;
53646;SDS011;39550;52.230;5.194;2023-04-16T09:37:25;7.60;;;4.60;;
53646;SDS011;39550;52.230;5.194;2023-04-16T09:39:55;9.40;;;5.50;;
53646;SDS011;39550;52.230;5.194;2023-04-16T09:42:34;7.30;;;4.90;;
53646;SDS011;39550;52.230;5.194;2023-04-16T09:45:01;9.32;;;4.68;;
53646;SDS011;39550;52.230;5.194;2023-04-16T09:47:39;8.68;;;4.65;;
53646;SDS011;39550;52.230;5.194;2023-04-16T09:50:07;6.95;;;4.90;;
53646;SDS011;39550;52.230;5.194;2023-04-16T09:52:35;10.95;;;5.10;;
53646;SDS011;39550;52.230;5.194;2023-04-16T09:55:02;9.65;;;4.70;;
53646;SDS011;39550;52.230;5.194;2023-04-16T09:57:28;8.85;;;4.50;;
53646;SDS011;39550;52.230;5.194;2023-04-16T09:59:54;9.57;;;5.18;;
53646;SDS011;39550;52.230;5.194;2023-04-16T10:02:29;8.70;;;5.05;;
53646;SDS011;39550;52.230;5.194;2023-04-16T10:04:54;15.15;;;6.50;;
53646;SDS011;39550;52.230;5.194;2023-04-16T10:07:21;28.60;;;7.22;;
53646;SDS011;39550;52.230;5.194;2023-04-16T10:09:47;33.20;;;8.88;;
53646;SDS011;39550;52.230;5.194;2023-04-16T10:12:13;40.10;;;10.80;;
53646;SDS011;39550;52.230;5.194;2023-04-16T10:14:39;32.33;;;10.25;;
53646;SDS011;39550;52.230;5.194;2023-04-16T10:17:06;33.72;;;9.45;;
53646;SDS011;39550;52.230;5.194;2023-04-16T10:19:32;26.10;;;8.68;;
53646;SDS011;39550;52.230;5.194;2023-04-16T10:21:59;24.15;;;8.73;;
53646;SDS011;39550;52.230;5.194;2023-04-16T10:24:24;27.00;;;7.68;;
53646;SDS011;39550;52.230;5.194;2023-04-16T10:26:50;24.05;;;8.35;;
53646;SDS011;39550;52.230;5.194;2023-04-16T10:29:16;20.98;;;7.65;;
53646;SDS011;39550;52.230;5.194;2023-04-16T10:31:43;19.58;;;8.13;;
53646;SDS011;39550;52.230;5.194;2023-04-16T10:34:09;15.90;;;7.03;;
53646;SDS011;39550;52.230;5.194;2023-04-16T10:36:37;22.33;;;7.03;;
53646;SDS011;39550;52.230;5.194;2023-04-16T10:39:04;18.83;;;7.50;;
53646;SDS011;39550;52.230;5.194;2023-04-16T10:41:35;17.45;;;6.63;;
53646;SDS011;39550;52.230;5.194;2023-04-16T10:44:08;18.05;;;7.10;;
53646;SDS011;39550;52.230;5.194;2023-04-16T10:49:13;13.52;;;6.72;;
53646;SDS011;39550;52.230;5.194;2023-04-16T10:51:53;15.90;;;7.07;;
53646;SDS011;39550;52.230;5.194;2023-04-16T10:54:19;16.83;;;7.78;;
53646;SDS011;39550;52.230;5.194;2023-04-16T10:56:48;11.98;;;5.65;;
53646;SDS011;39550;52.230;5.194;2023-04-16T10:59:16;17.27;;;6.65;;
53646;SDS011;39550;52.230;5.194;2023-04-16T11:01:44;11.40;;;6.18;;
53646;SDS011;39550;52.230;5.194;2023-04-16T11:12:16;16.67;;;7.00;;
53646;SDS011;39550;52.230;5.194;2023-04-16T11:14:58;14.38;;;6.28;;
53646;SDS011;39550;52.230;5.194;2023-04-16T11:17:51;14.55;;;6.47;;
53646;SDS011;39550;52.230;5.194;2023-04-16T11:20:20;14.88;;;6.70;;
53646;SDS011;39550;52.230;5.194;2023-04-16T11:22:47;13.90;;;6.72;;
53646;SDS011;39550;52.230;5.194;2023-04-16T11:25:17;13.32;;;7.25;;
53646;SDS011;39550;52.230;5.194;2023-04-16T11:27:47;14.90;;;7.80;;
53646;SDS011;39550;52.230;5.194;2023-04-16T11:30:12;12.50;;;6.50;;
53646;SDS011;39550;52.230;5.194;2023-04-16T11:32:38;14.60;;;7.47;;
53646;SDS011;39550;52.230;5.194;2023-04-16T11:35:11;14.48;;;7.70;;
53646;SDS011;39550;52.230;5.194;2023-04-16T11:37:41;11.93;;;7.10;;
53646;SDS011;39550;52.230;5.194;2023-04-16T11:40:07;14.40;;;7.10;;
53646;SDS011;39550;52.230;5.194;2023-04-16T11:42:36;12.23;;;7.93;;
53646;SDS011;39550;52.230;5.194;2023-04-16T11:45:04;11.73;;;7.40;;
53646;SDS011;39550;52.230;5.194;2023-04-16T11:47:31;12.60;;;7.43;;
53646;SDS011;39550;52.230;5.194;2023-04-16T11:50:16;15.02;;;7.70;;
53646;SDS011;39550;52.230;5.194;2023-04-16T11:52:56;14.90;;;7.18;;
53646;SDS011;39550;52.230;5.194;2023-04-16T11:55:28;14.60;;;7.20;;
53646;SDS011;39550;52.230;5.194;2023-04-16T11:57:53;14.32;;;7.82;;
53646;SDS011;39550;52.230;5.194;2023-04-16T12:00:19;12.93;;;7.35;;
53646;SDS011;39550;52.230;5.194;2023-04-16T12:02:48;12.13;;;6.90;;
53646;SDS011;39550;52.230;5.194;2023-04-16T12:08:02;12.68;;;7.70;;
53646;SDS011;39550;52.230;5.194;2023-04-16T12:10:34;9.93;;;6.40;;
53646;SDS011;39550;52.230;5.194;2023-04-16T12:13:17;14.52;;;7.93;;
53646;SDS011;39550;52.230;5.194;2023-04-16T12:15:45;12.98;;;7.25;;
53646;SDS011;39550;52.230;5.194;2023-04-16T12:18:13;12.73;;;6.65;;
53646;SDS011;39550;52.230;5.194;2023-04-16T12:20:40;15.38;;;6.38;;
53646;SDS011;39550;52.230;5.194;2023-04-16T12:23:06;13.95;;;7.65;;
53646;SDS011;39550;52.230;5.194;2023-04-16T12:25:32;11.65;;;6.75;;
53646;SDS011;39550;52.230;5.194;2023-04-16T12:27:58;11.80;;;6.40;;
53646;SDS011;39550;52.230;5.194;2023-04-16T12:30:24;10.82;;;7.13;;
53646;SDS011;39550;52.230;5.194;2023-04-16T12:32:50;12.20;;;7.70;;
53646;SDS011;39550;52.230;5.194;2023-04-16T12:35:30;12.73;;;6.35;;
53646;SDS011;39550;52.230;5.194;2023-04-16T12:37:57;11.95;;;7.78;;
53646;SDS011;39550;52.230;5.194;2023-04-16T12:40:23;11.80;;;6.90;;
53646;SDS011;39550;52.230;5.194;2023-04-16T12:42:48;10.85;;;7.63;;
53646;SDS011;39550;52.230;5.194;2023-04-16T12:45:13;11.90;;;6.82;;
53646;SDS011;39550;52.230;5.194;2023-04-16T12:47:39;13.02;;;7.15;;
53646;SDS011;39550;52.230;5.194;2023-04-16T12:50:04;12.73;;;6.68;;
53646;SDS011;39550;52.230;5.194;2023-04-16T12:52:30;10.52;;;6.90;;
53646;SDS011;39550;52.230;5.194;2023-04-16T12:54:55;11.75;;;6.25;;
53646;SDS011;39550;52.230;5.194;2023-04-16T12:57:20;11.38;;;7.30;;
53646;SDS011;39550;52.230;5.194;2023-04-16T12:59:52;10.95;;;6.53;;
53646;SDS011;39550;52.230;5.194;2023-04-16T13:02:17;11.63;;;7.55;;
53646;SDS011;39550;52.230;5.194;2023-04-16T13:04:43;13.60;;;7.10;;
53646;SDS011;39550;52.230;5.194;2023-04-16T13:07:08;10.80;;;6.60;;
53646;SDS011;39550;52.230;5.194;2023-04-16T13:09:33;13.48;;;6.65;;
53646;SDS011;39550;52.230;5.194;2023-04-16T13:11:59;12.25;;;7.53;;
53646;SDS011;39550;52.230;5.194;2023-04-16T13:14:24;12.13;;;7.63;;
53646;SDS011;39550;52.230;5.194;2023-04-16T13:16:50;14.95;;;9.05;;
53646;SDS011;39550;52.230;5.194;2023-04-16T13:19:15;12.38;;;7.78;;
53646;SDS011;39550;52.230;5.194;2023-04-16T13:21:43;13.43;;;7.65;;
53646;SDS011;39550;52.230;5.194;2023-04-16T13:24:08;10.98;;;6.50;;
53646;SDS011;39550;52.230;5.194;2023-04-16T13:26:33;13.88;;;8.23;;
53646;SDS011;39550;52.230;5.194;2023-04-16T13:28:59;12.73;;;7.38;;
53646;SDS011;39550;52.230;5.194;2023-04-16T13:31:25;13.88;;;7.72;;
53646;SDS011;39550;52.230;5.194;2023-04-16T13:33:50;11.57;;;7.20;;
53646;SDS011;39550;52.230;5.194;2023-04-16T13:36:16;13.13;;;7.55;;
53646;SDS011;39550;52.230;5.194;2023-04-16T13:38:41;12.00;;;7.40;;
53646;SDS011;39550;52.230;5.194;2023-04-16T13:41:06;12.43;;;8.20;;
53646;SDS011;39550;52.230;5.194;2023-04-16T13:43:31;13.35;;;8.27;;
53646;SDS011;39550;52.230;5.194;2023-04-16T13:45:57;12.88;;;8.55;;
53646;SDS011;39550;52.230;5.194;2023-04-16T13:48:23;13.82;;;8.35;;
53646;SDS011;39550;52.230;5.194;2023-04-16T13:50:48;12.35;;;8.50;;
53646;SDS011;39550;52.230;5.194;2023-04-16T13:53:13;12.93;;;7.43;;
53646;SDS011;39550;52.230;5.194;2023-04-16T13:55:39;12.13;;;8.38;;
53646;SDS011;39550;52.230;5.194;2023-04-16T13:58:04;14.68;;;8.65;;
53646;SDS011;39550;52.230;5.194;2023-04-16T14:00:31;15.23;;;8.60;;
53646;SDS011;39550;52.230;5.194;2023-04-16T14:02:56;13.75;;;8.77;;
53646;SDS011;39550;52.230;5.194;2023-04-16T14:05:21;15.52;;;9.10;;
53646;SDS011;39550;52.230;5.194;2023-04-16T14:07:47;13.93;;;8.88;;
53646;SDS011;39550;52.230;5.194;2023-04-16T14:10:12;13.77;;;8.75;;
53646;SDS011;39550;52.230;5.194;2023-04-16T14:12:38;16.85;;;9.63;;
53646;SDS011;39550;52.230;5.194;2023-04-16T14:15:04;12.77;;;7.90;;
53646;SDS011;39550;52.230;5.194;2023-04-16T14:17:30;14.05;;;8.90;;
53646;SDS011;39550;52.230;5.194;2023-04-16T14:19:56;17.33;;;9.68;;
53646;SDS011;39550;52.230;5.194;2023-04-16T14:22:21;14.90;;;8.60;;
53646;SDS011;39550;52.230;5.194;2023-04-16T14:24:47;11.75;;;7.85;;
53646;SDS011;39550;52.230;5.194;2023-04-16T14:27:12;13.85;;;8.50;;
53646;SDS011;39550;52.230;5.194;2023-04-16T14:29:37;14.00;;;8.73;;
53646;SDS011;39550;52.230;5.194;2023-04-16T14:32:03;12.75;;;8.50;;
53646;SDS011;39550;52.230;5.194;2023-04-16T14:34:28;14.27;;;8.70;;
53646;SDS011;39550;52.230;5.194;2023-04-16T14:36:54;11.48;;;8.27;;
53646;SDS011;39550;52.230;5.194;2023-04-16T14:39:19;11.80;;;8.23;;
53646;SDS011;39550;52.230;5.194;2023-04-16T14:41:44;14.07;;;8.57;;
53646;SDS011;39550;52.230;5.194;2023-04-16T14:44:10;15.35;;;8.68;;
53646;SDS011;39550;52.230;5.194;2023-04-16T14:46:35;12.98;;;8.27;;
53646;SDS011;39550;52.230;5.194;2023-04-16T14:49:02;15.65;;;8.43;;
53646;SDS011;39550;52.230;5.194;2023-04-16T14:51:28;11.75;;;8.18;;
53646;SDS011;39550;52.230;5.194;2023-04-16T14:53:53;12.85;;;8.88;;
53646;SDS011;39550;52.230;5.194;2023-04-16T14:56:20;16.95;;;9.23;;
53646;SDS011;39550;52.230;5.194;2023-04-16T14:58:45;14.75;;;8.20;;